sensor_id;sensor_type;location;lat;lon;timestamp;P1;durP1;ratioP1;P2;durP2;ratioP2
68872;SDS011;55907;50.806;12.882;2023-07-20T00:01:08;245.7;;;225.2;;
68872;SDS011;55907;50.806;12.882;2023-07-20T00:04:09;224.7;;;204.9;;
68872;SDS011;55907;50.806;12.882;2023-07-20T00:07:11;231.0;;;208.8;;
68872;SDS011;55907;50.806;12.882;2023-07-20T00:10:12;233.6;;;209.3;;
68872;SDS011;55907;50.806;12.882;2023-07-20T00:13:14;232.8;;;207.7;;
68872;SDS011;55907;50.806;12.882;2023-07-20T00:16:15;250.1;;;217.8;;
68872;SDS011;55907;50.806;12.882;2023-07-20T00:19:17;266.2;;;230.0;;
68872;SDS011;55907;50.806;12.882;2023-07-20T00:22:18;295.7;;;249.6;;
68872;SDS011;55907;50.806;12.882;2023-07-20T00:25:20;845.8;;;776.9;;
68872;SDS011;55907;50.806;12.882;2023-07-20T00:28:21;851.0;;;781.1;;
68872;SDS011;55907;50.806;12.882;2023-07-20T00:31:22;853.8;;;784.0;;
68872;SDS011;55907;50.806;12.882;2023-07-20T00:34:24;844.5;;;776.1;;
68872;SDS011;55907;50.806;12.882;2023-07-20T00:37:25;857.6;;;787.5;;
68872;SDS011;55907;50.806;12.882;2023-07-20T00:40:27;861.3;;;790.7;;
68872;SDS011;55907;50.806;12.882;2023-07-20T00:43:28;859.2;;;788.5;;
68872;SDS011;55907;50.806;12.882;2023-07-20T00:46:30;861.6;;;791.6;;
68872;SDS011;55907;50.806;12.882;2023-07-20T00:49:31;837.3;;;772.1;;
68872;SDS011;55907;50.806;12.882;2023-07-20T00:52:33;812.4;;;750.8;;
68872;SDS011;55907;50.806;12.882;2023-07-20T00:55:34;793.9;;;735.3;;
68872;SDS011;55907;50.806;12.882;2023-07-20T00:58:35;761.9;;;708.5;;
68872;SDS011;55907;50.806;12.882;2023-07-20T01:01:37;701.5;;;653.3;;
68872;SDS011;55907;50.806;12.882;2023-07-20T01:04:38;632.1;;;590.4;;
68872;SDS011;55907;50.806;12.882;2023-07-20T01:07:41;578.5;;;540.8;;
68872;SDS011;55907;50.806;12.882;2023-07-20T01:10:43;512.3;;;478.5;;
68872;SDS011;55907;50.806;12.882;2023-07-20T01:13:43;474.8;;;443.1;;
68872;SDS011;55907;50.806;12.882;2023-07-20T01:16:44;428.1;;;398.8;;
68872;SDS011;55907;50.806;12.882;2023-07-20T01:19:46;394.7;;;367.4;;
68872;SDS011;55907;50.806;12.882;2023-07-20T01:25:54;401.9;;;374.9;;
68872;SDS011;55907;50.806;12.882;2023-07-20T01:29:02;350.8;;;327.7;;
68872;SDS011;55907;50.806;12.882;2023-07-20T01:31:52;374.6;;;350.6;;
68872;SDS011;55907;50.806;12.882;2023-07-20T01:34:53;369.9;;;346.4;;
68872;SDS011;55907;50.806;12.882;2023-07-20T01:37:55;360.4;;;337.5;;
68872;SDS011;55907;50.806;12.882;2023-07-20T01:40:56;344.9;;;322.5;;
68872;SDS011;55907;50.806;12.882;2023-07-20T01:43:57;355.6;;;332.3;;
68872;SDS011;55907;50.806;12.882;2023-07-20T01:46:59;362.0;;;338.4;;
68872;SDS011;55907;50.806;12.882;2023-07-20T01:50:00;371.5;;;347.0;;
68872;SDS011;55907;50.806;12.882;2023-07-20T01:53:02;443.6;;;414.3;;
68872;SDS011;55907;50.806;12.882;2023-07-20T01:56:03;449.3;;;418.1;;
68872;SDS011;55907;50.806;12.882;2023-07-20T01:59:05;424.7;;;392.9;;
68872;SDS011;55907;50.806;12.882;2023-07-20T02:02:06;413.6;;;382.1;;
68872;SDS011;55907;50.806;12.882;2023-07-20T02:05:08;421.1;;;388.0;;
68872;SDS011;55907;50.806;12.882;2023-07-20T02:08:09;409.1;;;376.6;;
68872;SDS011;55907;50.806;12.882;2023-07-20T02:11:10;434.8;;;401.2;;
68872;SDS011;55907;50.806;12.882;2023-07-20T02:14:12;446.0;;;412.6;;
68872;SDS011;55907;50.806;12.882;2023-07-20T02:17:13;471.7;;;437.2;;
68872;SDS011;55907;50.806;12.882;2023-07-20T02:20:15;480.9;;;447.1;;
68872;SDS011;55907;50.806;12.882;2023-07-20T02:23:16;486.5;;;452.0;;
68872;SDS011;55907;50.806;12.882;2023-07-20T02:26:18;462.3;;;430.0;;
68872;SDS011;55907;50.806;12.882;2023-07-20T02:29:19;502.5;;;467.5;;
68872;SDS011;55907;50.806;12.882;2023-07-20T02:32:21;528.2;;;491.8;;
68872;SDS011;55907;50.806;12.882;2023-07-20T02:35:22;567.4;;;528.1;;
68872;SDS011;55907;50.806;12.882;2023-07-20T02:38:24;551.6;;;514.0;;
68872;SDS011;55907;50.806;12.882;2023-07-20T02:41:25;560.3;;;521.1;;
68872;SDS011;55907;50.806;12.882;2023-07-20T02:44:27;567.9;;;527.4;;
68872;SDS011;55907;50.806;12.882;2023-07-20T02:47:28;562.7;;;523.1;;
68872;SDS011;55907;50.806;12.882;2023-07-20T02:50:29;554.5;;;516.1;;
68872;SDS011;55907;50.806;12.882;2023-07-20T02:53:31;528.5;;;492.5;;
68872;SDS011;55907;50.806;12.882;2023-07-20T02:56:32;525.1;;;489.0;;
68872;SDS011;55907;50.806;12.882;2023-07-20T02:59:34;525.7;;;489.9;;
68872;SDS011;55907;50.806;12.882;2023-07-20T03:02:35;524.1;;;488.8;;
68872;SDS011;55907;50.806;12.882;2023-07-20T03:05:40;525.9;;;490.2;;
68872;SDS011;55907;50.806;12.882;2023-07-20T03:08:38;517.4;;;482.0;;
68872;SDS011;55907;50.806;12.882;2023-07-20T03:11:40;503.8;;;469.1;;
68872;SDS011;55907;50.806;12.882;2023-07-20T03:14:41;483.8;;;450.1;;
68872;SDS011;55907;50.806;12.882;2023-07-20T03:17:43;458.9;;;426.5;;
68872;SDS011;55907;50.806;12.882;2023-07-20T03:20:44;434.3;;;403.3;;
68872;SDS011;55907;50.806;12.882;2023-07-20T03:23:46;392.0;;;363.6;;
68872;SDS011;55907;50.806;12.882;2023-07-20T03:26:47;352.3;;;326.6;;
68872;SDS011;55907;50.806;12.882;2023-07-20T03:29:49;312.8;;;289.4;;
68872;SDS011;55907;50.806;12.882;2023-07-20T03:32:50;298.0;;;275.5;;
68872;SDS011;55907;50.806;12.882;2023-07-20T03:35:52;284.0;;;262.8;;
68872;SDS011;55907;50.806;12.882;2023-07-20T03:38:53;268.9;;;249.1;;
68872;SDS011;55907;50.806;12.882;2023-07-20T03:41:55;265.1;;;245.8;;
68872;SDS011;55907;50.806;12.882;2023-07-20T03:44:56;250.0;;;231.5;;
68872;SDS011;55907;50.806;12.882;2023-07-20T03:47:57;242.7;;;224.7;;
68872;SDS011;55907;50.806;12.882;2023-07-20T03:50:59;245.2;;;227.0;;
68872;SDS011;55907;50.806;12.882;2023-07-20T03:54:00;244.0;;;226.1;;
68872;SDS011;55907;50.806;12.882;2023-07-20T03:57:02;228.0;;;211.2;;
68872;SDS011;55907;50.806;12.882;2023-07-20T04:00:04;224.6;;;208.3;;
68872;SDS011;55907;50.806;12.882;2023-07-20T04:03:05;301.7;;;278.6;;
68872;SDS011;55907;50.806;12.882;2023-07-20T04:06:06;432.9;;;399.8;;
68872;SDS011;55907;50.806;12.882;2023-07-20T04:09:08;494.4;;;456.8;;
68872;SDS011;55907;50.806;12.882;2023-07-20T04:12:09;488.2;;;451.4;;
68872;SDS011;55907;50.806;12.882;2023-07-20T04:15:11;457.3;;;423.2;;
68872;SDS011;55907;50.806;12.882;2023-07-20T04:18:12;401.8;;;372.4;;
68872;SDS011;55907;50.806;12.882;2023-07-20T04:21:14;347.1;;;322.8;;
68872;SDS011;55907;50.806;12.882;2023-07-20T04:24:15;310.0;;;288.3;;
68872;SDS011;55907;50.806;12.882;2023-07-20T04:27:16;313.4;;;290.2;;
68872;SDS011;55907;50.806;12.882;2023-07-20T04:30:18;283.0;;;261.6;;
68872;SDS011;55907;50.806;12.882;2023-07-20T04:33:19;272.4;;;252.2;;
68872;SDS011;55907;50.806;12.882;2023-07-20T04:36:21;277.0;;;257.0;;
68872;SDS011;55907;50.806;12.882;2023-07-20T04:39:22;285.2;;;264.9;;
68872;SDS011;55907;50.806;12.882;2023-07-20T04:42:24;293.4;;;273.0;;
68872;SDS011;55907;50.806;12.882;2023-07-20T04:45:25;302.4;;;281.9;;
68872;SDS011;55907;50.806;12.882;2023-07-20T04:48:27;306.2;;;285.6;;
68872;SDS011;55907;50.806;12.882;2023-07-20T04:51:28;322.9;;;300.7;;
68872;SDS011;55907;50.806;12.882;2023-07-20T04:54:29;325.8;;;303.1;;
68872;SDS011;55907;50.806;12.882;2023-07-20T04:57:31;313.2;;;292.1;;
68872;SDS011;55907;50.806;12.882;2023-07-20T05:00:33;319.0;;;297.8;;
68872;SDS011;55907;50.806;12.882;2023-07-20T05:03:34;316.7;;;295.6;;
68872;SDS011;55907;50.806;12.882;2023-07-20T05:06:35;300.2;;;279.9;;
68872;SDS011;55907;50.806;12.882;2023-07-20T05:09:37;294.1;;;274.5;;
68872;SDS011;55907;50.806;12.882;2023-07-20T05:12:38;292.0;;;272.3;;
68872;SDS011;55907;50.806;12.882;2023-07-20T05:15:40;300.3;;;280.4;;
68872;SDS011;55907;50.806;12.882;2023-07-20T05:18:41;300.1;;;280.6;;
68872;SDS011;55907;50.806;12.882;2023-07-20T05:21:43;296.2;;;277.1;;
68872;SDS011;55907;50.806;12.882;2023-07-20T05:24:44;285.2;;;265.7;;
68872;SDS011;55907;50.806;12.882;2023-07-20T05:27:45;266.6;;;248.2;;
68872;SDS011;55907;50.806;12.882;2023-07-20T05:30:47;258.6;;;240.8;;
68872;SDS011;55907;50.806;12.882;2023-07-20T05:33:48;257.3;;;239.4;;
68872;SDS011;55907;50.806;12.882;2023-07-20T05:36:50;257.6;;;239.5;;
68872;SDS011;55907;50.806;12.882;2023-07-20T05:39:51;260.4;;;242.0;;
68872;SDS011;55907;50.806;12.882;2023-07-20T05:42:53;255.9;;;237.6;;
68872;SDS011;55907;50.806;12.882;2023-07-20T05:45:54;264.9;;;246.0;;
68872;SDS011;55907;50.806;12.882;2023-07-20T05:48:56;252.6;;;234.7;;
68872;SDS011;55907;50.806;12.882;2023-07-20T05:54:59;253.4;;;235.9;;
68872;SDS011;55907;50.806;12.882;2023-07-20T05:58:00;282.7;;;264.2;;
68872;SDS011;55907;50.806;12.882;2023-07-20T06:01:03;273.1;;;255.8;;
68872;SDS011;55907;50.806;12.882;2023-07-20T06:04:03;253.1;;;237.3;;
68872;SDS011;55907;50.806;12.882;2023-07-20T06:07:05;222.2;;;208.0;;
68872;SDS011;55907;50.806;12.882;2023-07-20T06:10:06;195.0;;;182.4;;
68872;SDS011;55907;50.806;12.882;2023-07-20T06:13:07;170.9;;;159.4;;
68872;SDS011;55907;50.806;12.882;2023-07-20T06:16:09;147.0;;;136.9;;
68872;SDS011;55907;50.806;12.882;2023-07-20T06:19:10;157.1;;;146.0;;
68872;SDS011;55907;50.806;12.882;2023-07-20T06:22:12;159.7;;;148.5;;
68872;SDS011;55907;50.806;12.882;2023-07-20T06:25:13;167.2;;;155.3;;
68872;SDS011;55907;50.806;12.882;2023-07-20T06:28:15;664.2;;;614.0;;
68872;SDS011;55907;50.806;12.882;2023-07-20T06:31:16;632.6;;;583.8;;
68872;SDS011;55907;50.806;12.882;2023-07-20T06:34:18;541.9;;;500.8;;
68872;SDS011;55907;50.806;12.882;2023-07-20T06:37:19;482.3;;;444.5;;
68872;SDS011;55907;50.806;12.882;2023-07-20T06:40:21;451.1;;;414.4;;
68872;SDS011;55907;50.806;12.882;2023-07-20T06:43:22;385.8;;;352.9;;
68872;SDS011;55907;50.806;12.882;2023-07-20T06:46:24;380.7;;;346.9;;
68872;SDS011;55907;50.806;12.882;2023-07-20T06:49:25;371.5;;;336.9;;
68872;SDS011;55907;50.806;12.882;2023-07-20T06:52:26;362.3;;;327.8;;
68872;SDS011;55907;50.806;12.882;2023-07-20T06:55:28;380.1;;;343.5;;
68872;SDS011;55907;50.806;12.882;2023-07-20T06:58:29;374.4;;;338.1;;
68872;SDS011;55907;50.806;12.882;2023-07-20T07:01:31;393.9;;;355.6;;
68872;SDS011;55907;50.806;12.882;2023-07-20T07:04:32;378.3;;;340.6;;
68872;SDS011;55907;50.806;12.882;2023-07-20T07:07:34;347.6;;;310.0;;
68872;SDS011;55907;50.806;12.882;2023-07-20T07:10:36;366.9;;;315.1;;
68872;SDS011;55907;50.806;12.882;2023-07-20T07:13:37;385.2;;;319.7;;
68872;SDS011;55907;50.806;12.882;2023-07-20T07:16:38;390.0;;;308.4;;
68872;SDS011;55907;50.806;12.882;2023-07-20T07:19:40;408.8;;;314.1;;
68872;SDS011;55907;50.806;12.882;2023-07-20T07:22:41;421.8;;;300.3;;
68872;SDS011;55907;50.806;12.882;2023-07-20T07:25:43;445.2;;;301.6;;
68872;SDS011;55907;50.806;12.882;2023-07-20T07:28:44;476.5;;;306.2;;
68872;SDS011;55907;50.806;12.882;2023-07-20T07:31:45;469.1;;;300.8;;
68872;SDS011;55907;50.806;12.882;2023-07-20T07:34:47;494.3;;;311.0;;
68872;SDS011;55907;50.806;12.882;2023-07-20T07:37:48;500.7;;;304.3;;
68872;SDS011;55907;50.806;12.882;2023-07-20T07:40:50;522.1;;;307.0;;
68872;SDS011;55907;50.806;12.882;2023-07-20T07:43:51;549.9;;;313.3;;
68872;SDS011;55907;50.806;12.882;2023-07-20T07:46:53;575.3;;;359.9;;
68872;SDS011;55907;50.806;12.882;2023-07-20T07:49:54;649.9;;;481.1;;
68872;SDS011;55907;50.806;12.882;2023-07-20T07:52:56;712.2;;;573.7;;
68872;SDS011;55907;50.806;12.882;2023-07-20T07:55:57;764.9;;;641.2;;
68872;SDS011;55907;50.806;12.882;2023-07-20T07:58:59;801.9;;;691.9;;
68872;SDS011;55907;50.806;12.882;2023-07-20T08:02:00;817.2;;;729.1;;
68872;SDS011;55907;50.806;12.882;2023-07-20T08:05:01;837.7;;;749.8;;
68872;SDS011;55907;50.806;12.882;2023-07-20T08:08:03;830.9;;;745.1;;
68872;SDS011;55907;50.806;12.882;2023-07-20T08:11:04;796.5;;;721.1;;
68872;SDS011;55907;50.806;12.882;2023-07-20T08:14:06;699.8;;;638.8;;
68872;SDS011;55907;50.806;12.882;2023-07-20T08:17:07;659.6;;;605.7;;
68872;SDS011;55907;50.806;12.882;2023-07-20T08:20:09;699.8;;;648.1;;
68872;SDS011;55907;50.806;12.882;2023-07-20T08:23:10;506.8;;;470.7;;
68872;SDS011;55907;50.806;12.882;2023-07-20T08:26:11;561.5;;;520.0;;
68872;SDS011;55907;50.806;12.882;2023-07-20T08:29:13;343.8;;;274.1;;
68872;SDS011;55907;50.806;12.882;2023-07-20T08:32:14;501.1;;;455.2;;
68872;SDS011;55907;50.806;12.882;2023-07-20T08:35:16;578.6;;;531.1;;
68872;SDS011;55907;50.806;12.882;2023-07-20T08:38:17;657.3;;;608.3;;
68872;SDS011;55907;50.806;12.882;2023-07-20T08:41:18;749.7;;;695.8;;
68872;SDS011;55907;50.806;12.882;2023-07-20T08:44:20;799.4;;;738.9;;
68872;SDS011;55907;50.806;12.882;2023-07-20T08:47:21;796.6;;;730.0;;
68872;SDS011;55907;50.806;12.882;2023-07-20T08:50:23;784.0;;;709.9;;
68872;SDS011;55907;50.806;12.882;2023-07-20T08:53:24;1155.6;;;945.1;;
68872;SDS011;55907;50.806;12.882;2023-07-20T08:56:25;1186.6;;;947.7;;
68872;SDS011;55907;50.806;12.882;2023-07-20T08:59:27;1093.8;;;911.7;;
68872;SDS011;55907;50.806;12.882;2023-07-20T09:02:28;962.4;;;785.7;;
68872;SDS011;55907;50.806;12.882;2023-07-20T09:05:29;763.9;;;662.3;;
68872;SDS011;55907;50.806;12.882;2023-07-20T09:08:31;760.4;;;693.1;;
68872;SDS011;55907;50.806;12.882;2023-07-20T09:11:32;850.5;;;760.3;;
68872;SDS011;55907;50.806;12.882;2023-07-20T09:14:34;787.4;;;705.6;;
68872;SDS011;55907;50.806;12.882;2023-07-20T09:17:35;816.7;;;744.4;;
68872;SDS011;55907;50.806;12.882;2023-07-20T09:20:36;794.2;;;722.6;;
68872;SDS011;55907;50.806;12.882;2023-07-20T09:23:38;718.1;;;660.0;;
68872;SDS011;55907;50.806;12.882;2023-07-20T09:26:40;711.2;;;658.8;;
68872;SDS011;55907;50.806;12.882;2023-07-20T09:29:48;725.5;;;672.5;;
68872;SDS011;55907;50.806;12.882;2023-07-20T09:32:42;681.8;;;633.2;;
68872;SDS011;55907;50.806;12.882;2023-07-20T09:35:43;678.8;;;630.5;;
68872;SDS011;55907;50.806;12.882;2023-07-20T09:38:45;649.3;;;600.4;;
68872;SDS011;55907;50.806;12.882;2023-07-20T09:41:46;641.2;;;585.8;;
68872;SDS011;55907;50.806;12.882;2023-07-20T09:44:47;693.2;;;628.0;;
68872;SDS011;55907;50.806;12.882;2023-07-20T09:47:49;717.1;;;649.3;;
68872;SDS011;55907;50.806;12.882;2023-07-20T09:50:50;685.4;;;622.5;;
68872;SDS011;55907;50.806;12.882;2023-07-20T09:53:52;678.2;;;615.9;;
68872;SDS011;55907;50.806;12.882;2023-07-20T09:56:53;688.1;;;624.5;;
68872;SDS011;55907;50.806;12.882;2023-07-20T09:59:54;729.3;;;660.1;;
68872;SDS011;55907;50.806;12.882;2023-07-20T10:02:56;747.6;;;675.1;;
68872;SDS011;55907;50.806;12.882;2023-07-20T10:05:58;750.8;;;677.5;;
68872;SDS011;55907;50.806;12.882;2023-07-20T10:09:00;748.3;;;674.9;;
68872;SDS011;55907;50.806;12.882;2023-07-20T10:12:00;726.0;;;654.5;;
68872;SDS011;55907;50.806;12.882;2023-07-20T10:15:05;686.5;;;618.8;;
68872;SDS011;55907;50.806;12.882;2023-07-20T10:18:04;665.7;;;599.6;;
68872;SDS011;55907;50.806;12.882;2023-07-20T10:21:04;671.6;;;605.3;;
68872;SDS011;55907;50.806;12.882;2023-07-20T10:24:06;690.8;;;623.1;;
68872;SDS011;55907;50.806;12.882;2023-07-20T10:27:07;681.6;;;615.0;;
68872;SDS011;55907;50.806;12.882;2023-07-20T10:30:09;671.1;;;604.9;;
68872;SDS011;55907;50.806;12.882;2023-07-20T10:33:10;691.2;;;622.6;;
68872;SDS011;55907;50.806;12.882;2023-07-20T10:36:11;744.5;;;671.0;;
68872;SDS011;55907;50.806;12.882;2023-07-20T10:39:21;764.0;;;689.4;;
68872;SDS011;55907;50.806;12.882;2023-07-20T10:42:14;788.1;;;712.3;;
68872;SDS011;55907;50.806;12.882;2023-07-20T10:45:16;801.0;;;723.6;;
68872;SDS011;55907;50.806;12.882;2023-07-20T10:48:18;822.0;;;741.4;;
68872;SDS011;55907;50.806;12.882;2023-07-20T10:51:20;832.8;;;750.7;;
68872;SDS011;55907;50.806;12.882;2023-07-20T10:57:22;840.0;;;758.0;;
68872;SDS011;55907;50.806;12.882;2023-07-20T11:00:22;838.2;;;757.5;;
68872;SDS011;55907;50.806;12.882;2023-07-20T11:03:27;856.2;;;773.9;;
68872;SDS011;55907;50.806;12.882;2023-07-20T11:06:33;864.7;;;782.1;;
68872;SDS011;55907;50.806;12.882;2023-07-20T11:09:33;833.3;;;754.6;;
68872;SDS011;55907;50.806;12.882;2023-07-20T11:12:28;772.7;;;701.2;;
68872;SDS011;55907;50.806;12.882;2023-07-20T11:18:32;629.3;;;574.2;;
68872;SDS011;55907;50.806;12.882;2023-07-20T11:21:35;636.4;;;581.4;;
68872;SDS011;55907;50.806;12.882;2023-07-20T11:24:33;634.8;;;575.9;;
68872;SDS011;55907;50.806;12.882;2023-07-20T11:27:40;593.1;;;536.3;;
68872;SDS011;55907;50.806;12.882;2023-07-20T11:30:37;544.4;;;495.2;;
68872;SDS011;55907;50.806;12.882;2023-07-20T11:33:37;519.5;;;478.1;;
68872;SDS011;55907;50.806;12.882;2023-07-20T11:36:39;489.0;;;453.5;;
68872;SDS011;55907;50.806;12.882;2023-07-20T11:39:40;565.6;;;523.2;;
68872;SDS011;55907;50.806;12.882;2023-07-20T11:42:42;648.4;;;598.3;;
68872;SDS011;55907;50.806;12.882;2023-07-20T11:45:43;629.3;;;582.6;;
68872;SDS011;55907;50.806;12.882;2023-07-20T11:48:44;477.3;;;445.4;;
68872;SDS011;55907;50.806;12.882;2023-07-20T11:51:46;470.3;;;438.8;;
68872;SDS011;55907;50.806;12.882;2023-07-20T11:54:47;600.9;;;556.8;;
68872;SDS011;55907;50.806;12.882;2023-07-20T12:00:50;744.0;;;687.6;;
68872;SDS011;55907;50.806;12.882;2023-07-20T12:03:51;768.6;;;707.8;;
68872;SDS011;55907;50.806;12.882;2023-07-20T12:06:53;615.5;;;567.0;;
68872;SDS011;55907;50.806;12.882;2023-07-20T12:13:00;498.1;;;460.1;;
68872;SDS011;55907;50.806;12.882;2023-07-20T12:15:57;858.2;;;780.1;;
68872;SDS011;55907;50.806;12.882;2023-07-20T12:18:59;630.2;;;577.8;;
68872;SDS011;55907;50.806;12.882;2023-07-20T12:22:00;662.0;;;619.0;;
68872;SDS011;55907;50.806;12.882;2023-07-20T12:25:01;767.5;;;711.0;;
68872;SDS011;55907;50.806;12.882;2023-07-20T12:28:04;801.6;;;738.4;;
68872;SDS011;55907;50.806;12.882;2023-07-20T12:31:04;701.4;;;648.7;;
68872;SDS011;55907;50.806;12.882;2023-07-20T12:34:05;422.2;;;391.3;;
68872;SDS011;55907;50.806;12.882;2023-07-20T12:37:07;396.8;;;364.2;;
68872;SDS011;55907;50.806;12.882;2023-07-20T12:40:08;481.6;;;439.0;;
68872;SDS011;55907;50.806;12.882;2023-07-20T12:43:10;533.7;;;486.2;;
68872;SDS011;55907;50.806;12.882;2023-07-20T12:46:12;561.3;;;511.6;;
68872;SDS011;55907;50.806;12.882;2023-07-20T12:49:13;586.4;;;534.7;;
68872;SDS011;55907;50.806;12.882;2023-07-20T12:52:14;531.6;;;483.4;;
68872;SDS011;55907;50.806;12.882;2023-07-20T12:55:16;492.9;;;446.4;;
68872;SDS011;55907;50.806;12.882;2023-07-20T12:58:17;452.2;;;407.2;;
68872;SDS011;55907;50.806;12.882;2023-07-20T13:01:18;419.8;;;377.9;;
68872;SDS011;55907;50.806;12.882;2023-07-20T13:04:20;390.0;;;351.4;;
68872;SDS011;55907;50.806;12.882;2023-07-20T13:07:29;365.9;;;328.5;;
68872;SDS011;55907;50.806;12.882;2023-07-20T13:10:23;331.1;;;295.9;;
68872;SDS011;55907;50.806;12.882;2023-07-20T13:13:24;349.9;;;312.3;;
68872;SDS011;55907;50.806;12.882;2023-07-20T13:16:26;354.1;;;315.4;;
68872;SDS011;55907;50.806;12.882;2023-07-20T13:19:27;379.1;;;332.6;;
68872;SDS011;55907;50.806;12.882;2023-07-20T13:22:28;413.0;;;298.3;;
68872;SDS011;55907;50.806;12.882;2023-07-20T13:25:30;466.1;;;308.5;;
68872;SDS011;55907;50.806;12.882;2023-07-20T13:28:31;550.3;;;337.0;;
68872;SDS011;55907;50.806;12.882;2023-07-20T13:31:33;618.2;;;344.2;;
68872;SDS011;55907;50.806;12.882;2023-07-20T13:34:34;651.8;;;326.1;;
68872;SDS011;55907;50.806;12.882;2023-07-20T13:37:35;615.8;;;331.1;;
68872;SDS011;55907;50.806;12.882;2023-07-20T13:40:37;642.8;;;437.8;;
68872;SDS011;55907;50.806;12.882;2023-07-20T13:43:38;668.2;;;527.5;;
68872;SDS011;55907;50.806;12.882;2023-07-20T13:46:40;616.6;;;527.0;;
68872;SDS011;55907;50.806;12.882;2023-07-20T13:49:41;710.1;;;578.6;;
68872;SDS011;55907;50.806;12.882;2023-07-20T13:52:43;732.8;;;538.8;;
68872;SDS011;55907;50.806;12.882;2023-07-20T13:55:44;725.6;;;535.6;;
68872;SDS011;55907;50.806;12.882;2023-07-20T13:58:45;715.8;;;582.2;;
68872;SDS011;55907;50.806;12.882;2023-07-20T14:01:47;763.9;;;658.7;;
68872;SDS011;55907;50.806;12.882;2023-07-20T14:04:48;778.6;;;669.4;;
68872;SDS011;55907;50.806;12.882;2023-07-20T14:07:50;746.3;;;664.5;;
68872;SDS011;55907;50.806;12.882;2023-07-20T14:10:51;770.9;;;685.5;;
68872;SDS011;55907;50.806;12.882;2023-07-20T14:13:53;736.5;;;656.5;;
68872;SDS011;55907;50.806;12.882;2023-07-20T14:16:54;697.3;;;624.0;;
68872;SDS011;55907;50.806;12.882;2023-07-20T14:19:55;702.0;;;629.2;;
68872;SDS011;55907;50.806;12.882;2023-07-20T14:22:57;687.9;;;619.8;;
68872;SDS011;55907;50.806;12.882;2023-07-20T14:25:58;696.4;;;630.3;;
68872;SDS011;55907;50.806;12.882;2023-07-20T14:28:59;680.1;;;617.8;;
68872;SDS011;55907;50.806;12.882;2023-07-20T14:32:01;699.3;;;636.4;;
68872;SDS011;55907;50.806;12.882;2023-07-20T14:35:02;719.6;;;653.6;;
68872;SDS011;55907;50.806;12.882;2023-07-20T14:38:04;746.1;;;674.9;;
68872;SDS011;55907;50.806;12.882;2023-07-20T14:41:05;733.4;;;663.4;;
68872;SDS011;55907;50.806;12.882;2023-07-20T14:44:07;717.0;;;649.8;;
68872;SDS011;55907;50.806;12.882;2023-07-20T14:47:08;730.6;;;662.5;;
68872;SDS011;55907;50.806;12.882;2023-07-20T14:50:09;726.9;;;657.3;;
68872;SDS011;55907;50.806;12.882;2023-07-20T14:53:11;756.7;;;681.8;;
68872;SDS011;55907;50.806;12.882;2023-07-20T14:56:12;748.9;;;672.6;;
68872;SDS011;55907;50.806;12.882;2023-07-20T14:59:14;763.7;;;686.3;;
68872;SDS011;55907;50.806;12.882;2023-07-20T15:02:15;735.5;;;659.9;;
68872;SDS011;55907;50.806;12.882;2023-07-20T15:05:20;749.4;;;668.7;;
68872;SDS011;55907;50.806;12.882;2023-07-20T15:08:18;793.1;;;691.6;;
68872;SDS011;55907;50.806;12.882;2023-07-20T15:11:19;875.2;;;752.8;;
68872;SDS011;55907;50.806;12.882;2023-07-20T15:14:21;987.0;;;859.7;;
68872;SDS011;55907;50.806;12.882;2023-07-20T15:17:22;1104.9;;;928.5;;
68872;SDS011;55907;50.806;12.882;2023-07-20T15:20:24;1064.0;;;924.3;;
68872;SDS011;55907;50.806;12.882;2023-07-20T15:23:25;982.9;;;878.7;;
68872;SDS011;55907;50.806;12.882;2023-07-20T15:26:26;921.5;;;827.2;;
68872;SDS011;55907;50.806;12.882;2023-07-20T15:29:28;873.4;;;785.5;;
68872;SDS011;55907;50.806;12.882;2023-07-20T15:32:29;829.4;;;748.2;;
68872;SDS011;55907;50.806;12.882;2023-07-20T15:35:31;805.3;;;726.7;;
68872;SDS011;55907;50.806;12.882;2023-07-20T15:38:32;797.6;;;720.5;;
68872;SDS011;55907;50.806;12.882;2023-07-20T15:41:34;771.4;;;698.3;;
68872;SDS011;55907;50.806;12.882;2023-07-20T15:44:35;757.3;;;686.8;;
68872;SDS011;55907;50.806;12.882;2023-07-20T15:47:36;749.8;;;682.4;;
68872;SDS011;55907;50.806;12.882;2023-07-20T15:50:38;733.0;;;669.1;;
68872;SDS011;55907;50.806;12.882;2023-07-20T15:53:39;735.3;;;673.7;;
68872;SDS011;55907;50.806;12.882;2023-07-20T15:56:41;748.7;;;687.4;;
68872;SDS011;55907;50.806;12.882;2023-07-20T15:59:42;734.5;;;674.9;;
68872;SDS011;55907;50.806;12.882;2023-07-20T16:02:43;751.8;;;691.2;;
68872;SDS011;55907;50.806;12.882;2023-07-20T16:05:45;767.4;;;703.7;;
68872;SDS011;55907;50.806;12.882;2023-07-20T16:08:46;560.6;;;503.4;;
68872;SDS011;55907;50.806;12.882;2023-07-20T16:11:47;474.6;;;424.0;;
68872;SDS011;55907;50.806;12.882;2023-07-20T16:14:49;483.5;;;435.7;;
68872;SDS011;55907;50.806;12.882;2023-07-20T16:17:50;533.4;;;484.5;;
68872;SDS011;55907;50.806;12.882;2023-07-20T16:20:52;558.4;;;507.9;;
68872;SDS011;55907;50.806;12.882;2023-07-20T16:23:53;514.7;;;466.3;;
68872;SDS011;55907;50.806;12.882;2023-07-20T16:26:55;497.7;;;450.2;;
68872;SDS011;55907;50.806;12.882;2023-07-20T16:29:56;494.6;;;446.5;;
68872;SDS011;55907;50.806;12.882;2023-07-20T16:32:57;459.6;;;412.3;;
68872;SDS011;55907;50.806;12.882;2023-07-20T16:35:59;473.0;;;424.1;;
68872;SDS011;55907;50.806;12.882;2023-07-20T16:39:00;460.7;;;411.1;;
68872;SDS011;55907;50.806;12.882;2023-07-20T16:42:02;480.5;;;429.8;;
68872;SDS011;55907;50.806;12.882;2023-07-20T16:45:03;468.7;;;418.3;;
68872;SDS011;55907;50.806;12.882;2023-07-20T16:48:05;485.7;;;433.5;;
68872;SDS011;55907;50.806;12.882;2023-07-20T16:51:06;492.4;;;439.8;;
68872;SDS011;55907;50.806;12.882;2023-07-20T16:54:07;518.2;;;463.3;;
68872;SDS011;55907;50.806;12.882;2023-07-20T16:57:09;537.6;;;479.8;;
68872;SDS011;55907;50.806;12.882;2023-07-20T17:00:10;560.4;;;502.0;;
68872;SDS011;55907;50.806;12.882;2023-07-20T17:03:11;571.3;;;467.1;;
68872;SDS011;55907;50.806;12.882;2023-07-20T17:06:13;546.8;;;457.8;;
68872;SDS011;55907;50.806;12.882;2023-07-20T17:09:15;538.1;;;453.1;;
68872;SDS011;55907;50.806;12.882;2023-07-20T17:12:16;541.8;;;464.7;;
68872;SDS011;55907;50.806;12.882;2023-07-20T17:15:17;544.7;;;475.0;;
68872;SDS011;55907;50.806;12.882;2023-07-20T17:18:18;542.8;;;466.0;;
68872;SDS011;55907;50.806;12.882;2023-07-20T17:21:20;549.8;;;450.9;;
68872;SDS011;55907;50.806;12.882;2023-07-20T17:24:21;567.1;;;453.3;;
68872;SDS011;55907;50.806;12.882;2023-07-20T17:27:23;591.8;;;487.7;;
68872;SDS011;55907;50.806;12.882;2023-07-20T17:30:24;604.0;;;524.3;;
68872;SDS011;55907;50.806;12.882;2023-07-20T17:33:26;676.0;;;605.7;;
68872;SDS011;55907;50.806;12.882;2023-07-20T17:36:27;718.1;;;646.6;;
68872;SDS011;55907;50.806;12.882;2023-07-20T17:39:28;743.1;;;671.3;;
68872;SDS011;55907;50.806;12.882;2023-07-20T17:42:30;732.4;;;661.2;;